createdAt,value
2022-07-27T00:00:44.569Z,17.90
2022-07-27T00:01:51.268Z,17.87
2022-07-27T00:02:53.554Z,17.85
2022-07-27T00:03:55.212Z,17.83
2022-07-27T00:04:56.818Z,17.83
2022-07-27T00:05:58.461Z,17.77
2022-07-27T00:07:00.034Z,17.72
2022-07-27T00:08:01.588Z,17.69
2022-07-27T00:09:03.591Z,17.62
2022-07-27T00:10:05.879Z,17.54
2022-07-27T00:11:10.085Z,17.52
2022-07-27T00:12:11.641Z,17.47
2022-07-27T00:13:13.217Z,17.42
2022-07-27T00:14:14.860Z,17.49
2022-07-27T00:15:16.572Z,17.46
2022-07-27T00:16:18.248Z,17.43
2022-07-27T00:17:23.847Z,17.41
2022-07-27T00:18:25.667Z,17.40
2022-07-27T00:19:27.749Z,17.40
2022-07-27T00:20:31.600Z,17.38
2022-07-27T00:21:33.343Z,17.36
2022-07-27T00:22:34.921Z,17.35
2022-07-27T00:23:36.527Z,17.35
2022-07-27T00:24:38.114Z,17.33
2022-07-27T00:25:39.661Z,17.35
2022-07-27T00:26:41.228Z,17.38
2022-07-27T00:27:42.999Z,17.40
2022-07-27T00:28:44.553Z,17.47
2022-07-27T00:29:46.104Z,17.47
2022-07-27T00:30:47.967Z,17.55
2022-07-27T00:31:49.579Z,17.62
2022-07-27T00:32:52.060Z,17.67
2022-07-27T00:33:53.705Z,17.69
2022-07-27T00:34:55.292Z,17.67
2022-07-27T00:35:56.841Z,17.76
2022-07-27T00:36:58.421Z,17.80
2022-07-27T00:37:59.937Z,17.79
2022-07-27T00:39:01.579Z,17.75
2022-07-27T00:40:04.646Z,17.79
2022-07-27T00:41:06.517Z,17.79
2022-07-27T00:42:08.139Z,17.79
2022-07-27T00:43:09.765Z,17.77
2022-07-27T00:44:12.354Z,17.80
2022-07-27T00:45:14.173Z,17.75
2022-07-27T00:46:15.802Z,17.77
2022-07-27T00:47:17.552Z,17.78
2022-07-27T00:48:19.307Z,17.79
2022-07-27T00:49:21.888Z,17.76
2022-07-27T00:50:23.533Z,17.74
2022-07-27T00:51:25.840Z,17.74
2022-07-27T00:52:30.025Z,17.73
2022-07-27T00:53:31.850Z,17.73
2022-07-27T00:54:33.649Z,17.75
2022-07-27T00:55:35.768Z,17.79
2022-07-27T00:56:37.419Z,17.78
2022-07-27T00:57:53.183Z,17.77
2022-07-27T00:59:11.347Z,17.68
2022-07-27T01:00:14.947Z,17.72
2022-07-27T01:01:19.014Z,17.76
2022-07-27T01:02:22.876Z,17.84
2022-07-27T01:03:29.634Z,17.86
2022-07-27T01:04:31.657Z,17.89
2022-07-27T01:05:36.664Z,17.91
2022-07-27T01:06:39.625Z,17.94
2022-07-27T01:07:42.524Z,17.95
2022-07-27T01:08:44.470Z,17.95
2022-07-27T01:09:58.792Z,17.96
2022-07-27T01:11:02.929Z,17.96
2022-07-27T01:12:07.065Z,17.99
2022-07-27T01:13:12.857Z,18.00
2022-07-27T01:14:16.925Z,18.02
2022-07-27T01:15:18.740Z,18.03
2022-07-27T01:16:21.075Z,18.02
2022-07-27T01:17:22.789Z,18.03
2022-07-27T01:18:38.949Z,18.03
2022-07-27T01:19:40.661Z,18.03
2022-07-27T01:20:42.870Z,18.03
2022-07-27T01:21:44.758Z,18.02
2022-07-27T01:22:46.365Z,17.99
2022-07-27T01:23:47.967Z,18.02
2022-07-27T01:24:50.246Z,17.98
2022-07-27T01:25:51.884Z,17.94
2022-07-27T01:26:53.360Z,17.92
2022-07-27T01:27:54.872Z,17.88
2022-07-27T01:29:01.502Z,17.84
2022-07-27T01:30:24.477Z,17.81
2022-07-27T01:31:26.560Z,17.80
2022-07-27T01:32:28.145Z,17.77
2022-07-27T01:34:04.584Z,17.74
2022-07-27T01:35:06.751Z,17.71
2022-07-27T01:36:08.482Z,17.69
2022-07-27T01:37:10.104Z,17.68
2022-07-27T01:38:13.243Z,17.66
2022-07-27T01:39:16.311Z,17.64
2022-07-27T01:40:17.949Z,17.62
2022-07-27T01:41:19.518Z,17.60
2022-07-27T01:42:21.079Z,17.32
2022-07-27T01:43:23.081Z,17.49
2022-07-27T01:44:24.841Z,17.51
2022-07-27T01:45:26.451Z,17.51
2022-07-27T01:46:28.086Z,17.47
2022-07-27T01:47:29.686Z,17.41
2022-07-27T01:48:31.422Z,17.01
2022-07-27T01:49:33.081Z,17.34
2022-07-27T01:50:34.619Z,17.04
2022-07-27T01:51:36.178Z,17.27
2022-07-27T01:52:39.247Z,17.24
2022-07-27T01:53:41.172Z,17.23
2022-07-27T01:54:42.732Z,17.22
2022-07-27T01:55:44.541Z,17.20
2022-07-27T01:56:46.210Z,17.18
2022-07-27T01:57:49.962Z,17.18
2022-07-27T01:58:51.521Z,17.19
2022-07-27T01:59:53.907Z,17.16
2022-07-27T02:00:55.462Z,17.12
2022-07-27T02:01:57.108Z,17.10
2022-07-27T02:02:58.846Z,17.02
2022-07-27T02:04:00.437Z,17.06
2022-07-27T02:05:02.312Z,17.00
2022-07-27T02:06:04.813Z,16.96
2022-07-27T02:07:06.412Z,16.92
2022-07-27T02:08:08.691Z,16.92
2022-07-27T02:09:10.538Z,16.89
2022-07-27T02:10:12.371Z,16.88
2022-07-27T02:11:32.653Z,16.83
2022-07-27T02:12:37.615Z,16.81
2022-07-27T02:13:39.308Z,16.76
2022-07-27T02:14:40.848Z,16.65
2022-07-27T02:15:43.160Z,16.72
2022-07-27T02:16:46.248Z,16.67
2022-07-27T02:17:49.181Z,16.64
2022-07-27T02:18:52.026Z,16.60
2022-07-27T02:19:56.458Z,16.54
2022-07-27T02:20:58.083Z,16.50
2022-07-27T02:21:59.693Z,16.44
2022-07-27T02:23:01.963Z,16.40
2022-07-27T02:24:03.590Z,16.34
2022-07-27T02:25:06.001Z,16.33
2022-07-27T02:26:08.784Z,16.30
2022-07-27T02:27:10.373Z,16.27
2022-07-27T02:28:12.328Z,16.24
2022-07-27T02:29:14.479Z,16.23
2022-07-27T02:30:17.675Z,16.16
2022-07-27T02:31:19.759Z,16.14
2022-07-27T02:32:21.616Z,16.14
2022-07-27T02:33:23.204Z,16.17
2022-07-27T02:34:25.571Z,16.14
2022-07-27T02:35:27.182Z,16.10
2022-07-27T02:36:31.757Z,16.07
2022-07-27T02:37:33.439Z,16.02
2022-07-27T02:38:34.950Z,16.03
2022-07-27T02:39:36.588Z,16.01
2022-07-27T02:40:38.100Z,15.99
2022-07-27T02:41:39.708Z,15.97
2022-07-27T02:42:41.332Z,15.96
2022-07-27T02:43:42.922Z,15.94
2022-07-27T02:44:44.843Z,15.90
2022-07-27T02:45:46.763Z,15.88
2022-07-27T02:46:48.660Z,15.90
2022-07-27T02:47:50.557Z,15.87
2022-07-27T02:48:52.171Z,15.86
2022-07-27T02:49:53.905Z,15.85
2022-07-27T02:51:00.445Z,15.83
2022-07-27T02:52:02.092Z,15.79
2022-07-27T02:53:03.664Z,15.83
2022-07-27T02:54:05.419Z,15.86
2022-07-27T02:55:08.346Z,15.86
2022-07-27T02:56:10.666Z,15.87
2022-07-27T02:57:12.250Z,15.86
2022-07-27T02:58:14.001Z,15.84
2022-07-27T02:59:15.668Z,15.88
2022-07-27T03:00:17.636Z,15.88
2022-07-27T03:01:19.390Z,15.83
2022-07-27T03:02:21.305Z,15.82
2022-07-27T03:03:22.916Z,15.80
2022-07-27T03:04:34.649Z,15.76
2022-07-27T03:05:36.300Z,15.73
2022-07-27T03:06:38.336Z,15.73
2022-07-27T03:07:39.903Z,15.72
2022-07-27T03:08:42.060Z,15.74
2022-07-27T03:09:43.833Z,15.76
2022-07-27T03:10:48.703Z,15.76
2022-07-27T03:11:50.608Z,15.65
2022-07-27T03:12:52.183Z,15.76
2022-07-27T03:13:53.744Z,15.75
2022-07-27T03:14:57.065Z,15.70
2022-07-27T03:15:58.719Z,15.74
2022-07-27T03:17:00.657Z,15.76
2022-07-27T03:18:02.507Z,15.76
2022-07-27T03:19:04.721Z,15.71
2022-07-27T03:20:08.099Z,15.73
2022-07-27T03:21:13.051Z,15.70
2022-07-27T03:22:14.602Z,15.70
2022-07-27T03:23:18.039Z,15.68
2022-07-27T03:24:19.607Z,15.65
2022-07-27T03:25:21.199Z,15.61
2022-07-27T03:26:22.753Z,15.59
2022-07-27T03:27:24.360Z,15.56
2022-07-27T03:28:25.885Z,15.53
2022-07-27T03:29:29.348Z,15.49
2022-07-27T03:30:32.354Z,15.43
2022-07-27T03:31:34.165Z,15.42
2022-07-27T03:32:35.753Z,15.39
2022-07-27T03:33:37.896Z,15.37
2022-07-27T03:34:39.483Z,15.35
2022-07-27T03:35:41.079Z,15.31
2022-07-27T03:36:43.033Z,15.26
2022-07-27T03:37:44.614Z,15.25
2022-07-27T03:38:46.210Z,15.25
2022-07-27T03:39:48.710Z,15.21
2022-07-27T03:40:50.271Z,15.21
2022-07-27T03:41:51.881Z,15.16
2022-07-27T03:42:53.414Z,15.15
2022-07-27T03:43:54.939Z,15.11
2022-07-27T03:44:56.559Z,15.07
2022-07-27T03:45:58.214Z,15.08
2022-07-27T03:46:59.828Z,15.06
2022-07-27T03:48:01.476Z,15.08
2022-07-27T03:49:03.071Z,15.08
2022-07-27T03:50:16.736Z,15.07
2022-07-27T03:51:18.281Z,15.08
2022-07-27T03:52:20.842Z,15.07
2022-07-27T03:53:22.598Z,15.08
2022-07-27T03:54:24.454Z,15.00
2022-07-27T03:55:26.166Z,15.04
2022-07-27T03:56:27.771Z,15.06
2022-07-27T03:57:29.387Z,15.05
2022-07-27T03:58:31.184Z,15.05
2022-07-27T03:59:32.723Z,15.03
2022-07-27T04:00:34.327Z,15.01
2022-07-27T04:01:36.010Z,15.00
2022-07-27T04:02:37.976Z,14.95
2022-07-27T04:03:44.087Z,14.99
2022-07-27T04:04:46.025Z,15.00
2022-07-27T04:05:47.702Z,14.98
2022-07-27T04:06:49.308Z,14.98
2022-07-27T04:07:55.015Z,14.82
2022-07-27T04:09:07.028Z,14.97
2022-07-27T04:10:15.612Z,14.94
2022-07-27T04:11:17.697Z,14.94
2022-07-27T04:12:20.480Z,15.01
2022-07-27T04:13:22.890Z,15.02
2022-07-27T04:14:24.566Z,15.02
2022-07-27T04:15:26.279Z,15.04
2022-07-27T04:16:30.722Z,15.06
2022-07-27T04:17:55.051Z,15.10
2022-07-27T04:18:56.060Z,15.13
2022-07-27T04:19:57.632Z,15.03
2022-07-27T04:21:01.898Z,15.17
2022-07-27T04:22:04.092Z,15.21
2022-07-27T04:23:05.633Z,15.25
2022-07-27T04:24:07.392Z,15.25
2022-07-27T04:25:09.409Z,15.19
2022-07-27T04:26:11.020Z,15.22
2022-07-27T04:27:13.200Z,15.27
2022-07-27T04:28:14.791Z,15.28
2022-07-27T04:29:20.580Z,15.30
2022-07-27T04:30:23.385Z,15.30
2022-07-27T04:31:25.359Z,15.33
2022-07-27T04:32:26.947Z,15.34
2022-07-27T04:33:28.514Z,15.28
2022-07-27T04:34:30.125Z,15.37
2022-07-27T04:35:31.690Z,15.41
2022-07-27T04:36:33.283Z,15.44
2022-07-27T04:37:35.367Z,15.48
2022-07-27T04:38:37.067Z,15.50
2022-07-27T04:39:38.956Z,15.44
2022-07-27T04:40:40.508Z,15.51
2022-07-27T04:41:42.414Z,15.61
2022-07-27T04:42:49.544Z,15.63
2022-07-27T04:43:52.691Z,15.66
2022-07-27T04:44:54.260Z,15.69
2022-07-27T04:45:55.880Z,15.73
2022-07-27T04:46:57.468Z,15.78
2022-07-27T04:47:59.064Z,15.82
2022-07-27T04:49:01.115Z,15.85
2022-07-27T04:50:02.865Z,15.92
2022-07-27T04:51:04.647Z,15.97
2022-07-27T04:52:06.222Z,16.03
2022-07-27T04:53:08.305Z,16.07
2022-07-27T04:54:10.051Z,16.15
2022-07-27T04:55:11.914Z,16.23
2022-07-27T04:56:13.671Z,16.29
2022-07-27T04:57:15.705Z,16.35
2022-07-27T04:58:17.510Z,15.93
2022-07-27T04:59:19.102Z,16.46
2022-07-27T05:00:20.668Z,16.53
2022-07-27T05:01:26.674Z,16.57
2022-07-27T05:02:31.575Z,16.65
2022-07-27T05:03:33.161Z,16.68
2022-07-27T05:04:34.726Z,16.81
2022-07-27T05:05:36.976Z,16.89
2022-07-27T05:06:38.545Z,16.94
2022-07-27T05:07:40.077Z,16.99
2022-07-27T05:08:41.712Z,17.10
2022-07-27T05:09:43.382Z,17.17
2022-07-27T05:10:45.309Z,17.23
2022-07-27T05:11:51.150Z,17.34
2022-07-27T05:12:53.894Z,17.38
2022-07-27T05:13:55.590Z,17.45
2022-07-27T05:14:57.252Z,17.52
2022-07-27T05:15:58.913Z,17.60
2022-07-27T05:17:00.611Z,17.63
2022-07-27T05:18:02.248Z,17.65
2022-07-27T05:19:03.842Z,17.72
2022-07-27T05:20:05.941Z,17.80
2022-07-27T05:21:08.367Z,17.88
2022-07-27T05:22:10.576Z,17.92
2022-07-27T05:23:12.178Z,17.49
2022-07-27T05:24:13.931Z,17.94
2022-07-27T05:25:15.596Z,17.97
2022-07-27T05:26:17.312Z,17.98
2022-07-27T05:27:18.999Z,18.01
2022-07-27T05:28:20.584Z,18.07
2022-07-27T05:29:22.161Z,18.18
2022-07-27T05:30:25.388Z,18.21
2022-07-27T05:31:26.991Z,18.36
2022-07-27T05:32:29.217Z,18.48
2022-07-27T05:33:30.931Z,18.54
2022-07-27T05:34:32.516Z,18.14
2022-07-27T05:35:34.548Z,18.66
2022-07-27T05:36:36.391Z,18.73
2022-07-27T05:37:37.960Z,18.80
2022-07-27T05:38:40.200Z,18.68
2022-07-27T05:39:42.327Z,18.83
2022-07-27T05:40:45.693Z,18.87
2022-07-27T05:41:47.308Z,18.88
2022-07-27T05:42:51.273Z,18.79
2022-07-27T05:43:54.595Z,18.91
2022-07-27T05:44:56.485Z,18.81
2022-07-27T05:45:58.149Z,18.80
2022-07-27T05:46:59.827Z,18.87
2022-07-27T05:48:01.817Z,18.91
2022-07-27T05:49:03.966Z,18.92
2022-07-27T05:50:06.121Z,18.96
2022-07-27T05:51:08.346Z,19.03
2022-07-27T05:52:09.987Z,19.11
2022-07-27T05:53:12.942Z,19.24
2022-07-27T05:54:14.652Z,19.34
2022-07-27T05:55:16.341Z,19.45
2022-07-27T05:56:17.920Z,19.58
2022-07-27T05:57:19.556Z,19.71
2022-07-27T05:58:21.242Z,19.80
2022-07-27T05:59:26.441Z,19.78
2022-07-27T06:00:28.019Z,19.61
2022-07-27T06:01:29.641Z,19.63
2022-07-27T06:02:31.676Z,19.17
2022-07-27T06:03:33.572Z,19.60
2022-07-27T06:04:35.866Z,19.66
2022-07-27T06:05:37.539Z,19.67
2022-07-27T06:06:57.720Z,19.83
2022-07-27T06:07:59.342Z,19.94
2022-07-27T06:09:00.948Z,20.04
2022-07-27T06:10:03.259Z,20.06
2022-07-27T06:11:04.920Z,20.12
2022-07-27T06:12:06.855Z,20.19
2022-07-27T06:13:10.365Z,20.17
2022-07-27T06:14:11.978Z,20.24
2022-07-27T06:15:14.893Z,20.40
2022-07-27T06:16:16.995Z,20.52
2022-07-27T06:17:18.793Z,20.61
2022-07-27T06:18:20.356Z,20.69
2022-07-27T06:19:21.991Z,20.71
2022-07-27T06:20:24.423Z,20.69
2022-07-27T06:21:28.092Z,20.78
2022-07-27T06:22:29.950Z,20.90
2022-07-27T06:23:31.830Z,20.91
2022-07-27T06:24:33.953Z,20.90
2022-07-27T06:25:36.171Z,20.95
2022-07-27T06:26:38.025Z,21.08
2022-07-27T06:27:39.680Z,21.10
2022-07-27T06:28:41.343Z,21.33
2022-07-27T06:29:43.096Z,21.42
2022-07-27T06:30:45.872Z,21.71
2022-07-27T06:31:47.602Z,21.90
2022-07-27T06:32:49.392Z,22.06
2022-07-27T06:33:52.379Z,22.05
2022-07-27T06:34:54.033Z,22.15
2022-07-27T06:35:58.250Z,22.23
2022-07-27T06:37:00.171Z,22.13
2022-07-27T06:38:02.813Z,21.98
2022-07-27T06:39:04.453Z,21.93
2022-07-27T06:40:06.651Z,21.88
2022-07-27T06:41:08.288Z,21.79
2022-07-27T06:42:09.914Z,21.88
2022-07-27T06:43:11.499Z,21.94
2022-07-27T06:44:13.115Z,22.03
2022-07-27T06:45:14.775Z,21.96
2022-07-27T06:46:16.838Z,21.94
2022-07-27T06:47:18.466Z,22.00
2022-07-27T06:48:21.241Z,21.99
2022-07-27T06:49:22.829Z,22.02
2022-07-27T06:50:25.065Z,22.06
2022-07-27T06:51:26.719Z,22.08
2022-07-27T06:52:28.517Z,22.15
2022-07-27T06:53:36.177Z,22.23
2022-07-27T06:54:38.851Z,22.32
2022-07-27T06:55:41.252Z,22.31
2022-07-27T06:56:42.903Z,22.35
2022-07-27T06:57:46.285Z,22.50
2022-07-27T06:58:49.153Z,22.45
2022-07-27T06:59:50.876Z,22.56
2022-07-27T07:00:52.487Z,22.48
2022-07-27T07:01:54.089Z,22.45
2022-07-27T07:03:00.728Z,22.44
2022-07-27T07:04:02.766Z,22.51
2022-07-27T07:05:04.861Z,22.49
2022-07-27T07:06:06.477Z,22.38
2022-07-27T07:07:08.390Z,22.44
2022-07-27T07:08:11.981Z,22.52
2022-07-27T07:09:13.910Z,22.51
2022-07-27T07:10:16.175Z,22.51
2022-07-27T07:11:17.841Z,22.54
2022-07-27T07:12:19.551Z,22.50
2022-07-27T07:13:21.242Z,22.50
2022-07-27T07:14:23.715Z,22.58
2022-07-27T07:15:26.594Z,22.57
2022-07-27T07:16:28.383Z,22.76
2022-07-27T07:17:30.008Z,22.86
2022-07-27T07:18:31.726Z,22.89
2022-07-27T07:19:33.994Z,23.15
2022-07-27T07:20:37.173Z,23.23
2022-07-27T07:21:38.740Z,23.23
2022-07-27T07:22:40.321Z,23.28
2022-07-27T07:23:42.156Z,23.29
2022-07-27T07:24:43.722Z,23.38
2022-07-27T07:25:45.281Z,23.41
2022-07-27T07:26:46.871Z,23.40
2022-07-27T07:27:49.241Z,23.18
2022-07-27T07:28:50.832Z,23.13
2022-07-27T07:29:52.968Z,23.02
2022-07-27T07:30:54.594Z,23.01
2022-07-27T07:31:56.288Z,22.92
2022-07-27T07:32:58.177Z,22.85
2022-07-27T07:34:00.050Z,22.80
2022-07-27T07:35:03.919Z,22.89
2022-07-27T07:36:12.106Z,22.89
2022-07-27T07:37:17.681Z,22.82
2022-07-27T07:38:19.523Z,22.90
2022-07-27T07:39:21.387Z,22.86
2022-07-27T07:40:42.622Z,22.91
2022-07-27T07:41:44.619Z,23.15
2022-07-27T07:42:55.391Z,23.16
2022-07-27T07:43:56.961Z,23.30
2022-07-27T07:44:58.680Z,23.38
2022-07-27T07:46:00.256Z,23.41
2022-07-27T07:47:01.874Z,23.37
2022-07-27T07:48:05.580Z,23.23
2022-07-27T07:49:07.233Z,23.60
2022-07-27T07:50:09.287Z,24.15
2022-07-27T07:51:11.710Z,24.43
2022-07-27T07:52:13.529Z,24.94
2022-07-27T07:53:15.475Z,25.35
2022-07-27T07:54:17.420Z,25.95
2022-07-27T07:55:23.846Z,26.62
2022-07-27T07:56:25.457Z,26.97
2022-07-27T07:57:27.077Z,27.28
2022-07-27T07:58:28.760Z,27.58
2022-07-27T07:59:30.321Z,27.85
2022-07-27T08:00:32.215Z,27.86
2022-07-27T08:01:33.948Z,28.01
2022-07-27T08:02:53.317Z,28.12
2022-07-27T08:03:55.253Z,28.05
2022-07-27T08:04:56.799Z,28.12
2022-07-27T08:05:58.453Z,28.26
2022-07-27T08:07:00.108Z,28.49
2022-07-27T08:08:01.683Z,28.39
2022-07-27T08:09:03.376Z,28.49
2022-07-27T08:10:07.767Z,28.28
2022-07-27T08:11:09.400Z,28.29
2022-07-27T08:12:11.031Z,28.30
2022-07-27T08:13:12.657Z,28.52
2022-07-27T08:14:14.235Z,28.62
2022-07-27T08:15:17.561Z,28.45
2022-07-27T08:16:19.251Z,28.55
2022-07-27T08:17:20.912Z,28.90
2022-07-27T08:18:22.619Z,29.10
2022-07-27T08:19:24.561Z,29.17
2022-07-27T08:20:28.235Z,29.31
2022-07-27T08:21:31.642Z,29.57
2022-07-27T08:22:37.476Z,29.33
2022-07-27T08:23:39.125Z,29.29
2022-07-27T08:24:40.667Z,29.25
2022-07-27T08:25:42.635Z,29.80
2022-07-27T08:26:44.247Z,30.01
2022-07-27T08:27:47.398Z,30.38
2022-07-27T08:28:59.398Z,30.80
2022-07-27T08:30:23.234Z,31.19
2022-07-27T08:31:52.104Z,31.32
2022-07-27T08:33:01.281Z,31.41
2022-07-27T08:34:07.013Z,32.01
2022-07-27T08:35:08.834Z,32.69
2022-07-27T08:36:10.449Z,32.61
2022-07-27T08:37:15.396Z,31.45
2022-07-27T08:38:17.614Z,31.23
2022-07-27T08:40:05.419Z,30.65
2022-07-27T08:40:44.869Z,29.14
2022-07-27T08:41:47.886Z,28.73
2022-07-27T08:42:49.584Z,29.17
2022-07-27T08:43:54.411Z,28.79
2022-07-27T08:44:56.186Z,29.17
2022-07-27T08:45:59.971Z,29.66
2022-07-27T08:47:02.981Z,29.60
2022-07-27T08:48:05.809Z,29.24
2022-07-27T08:49:08.824Z,29.22
2022-07-27T08:50:32.248Z,28.81
2022-07-27T08:51:34.560Z,29.02
2022-07-27T08:52:36.347Z,29.52
2022-07-27T08:53:53.196Z,30.06
2022-07-27T08:54:55.501Z,30.10
2022-07-27T08:55:57.620Z,29.84
2022-07-27T08:56:59.252Z,29.42
2022-07-27T08:58:03.431Z,28.95
2022-07-27T08:59:05.425Z,28.99
2022-07-27T09:00:07.789Z,28.98
2022-07-27T09:01:09.437Z,28.73
2022-07-27T09:02:14.030Z,28.60
2022-07-27T09:03:20.109Z,28.42
2022-07-27T09:04:22.662Z,28.62
2022-07-27T09:05:24.398Z,28.40
2022-07-27T09:06:42.706Z,28.15
2022-07-27T09:07:44.654Z,27.81
2022-07-27T09:08:59.183Z,27.91
2022-07-27T09:10:01.327Z,28.00
2022-07-27T09:11:13.415Z,28.29
2022-07-27T09:12:15.010Z,28.64
2022-07-27T09:13:22.053Z,29.31
2022-07-27T09:14:31.270Z,29.93
2022-07-27T09:15:34.703Z,30.50
2022-07-27T09:17:14.787Z,30.92
2022-07-27T09:17:58.439Z,31.57
2022-07-27T09:19:05.766Z,31.85
2022-07-27T09:20:17.352Z,32.29
2022-07-27T09:21:23.160Z,32.62
2022-07-27T09:22:56.240Z,32.68
2022-07-27T09:24:29.349Z,31.57
2022-07-27T09:27:03.637Z,29.64
2022-07-27T09:28:05.364Z,29.54
2022-07-27T09:29:09.975Z,29.00
2022-07-27T09:30:14.507Z,28.45
2022-07-27T09:31:16.619Z,28.14
2022-07-27T09:32:18.216Z,27.93
2022-07-27T09:33:19.839Z,27.68
2022-07-27T09:34:31.136Z,28.04
2022-07-27T09:35:38.611Z,28.76
2022-07-27T09:36:52.253Z,29.52
2022-07-27T09:37:53.874Z,29.85
2022-07-27T09:39:06.807Z,29.88
2022-07-27T09:40:14.045Z,29.84
2022-07-27T09:41:16.784Z,30.15
2022-07-27T09:43:03.812Z,30.67
2022-07-27T09:44:29.692Z,31.11
2022-07-27T09:45:34.002Z,31.64
2022-07-27T09:46:39.071Z,32.11
2022-07-27T09:47:40.842Z,32.18
2022-07-27T09:48:42.915Z,32.42
2022-07-27T09:49:44.547Z,32.64
2022-07-27T09:51:02.240Z,32.67
2022-07-27T09:52:05.498Z,32.89
2022-07-27T09:53:41.845Z,33.28
2022-07-27T09:54:47.002Z,33.36
2022-07-27T09:56:13.278Z,33.12
2022-07-27T09:57:15.194Z,33.07
2022-07-27T09:58:16.968Z,33.24
2022-07-27T09:59:19.327Z,33.12
2022-07-27T10:00:21.597Z,33.20
2022-07-27T10:01:31.072Z,33.12
2022-07-27T10:02:32.887Z,33.06
2022-07-27T10:03:34.552Z,33.22
2022-07-27T10:04:36.493Z,33.23
2022-07-27T10:05:38.172Z,33.01
2022-07-27T10:07:01.206Z,33.09
2022-07-27T10:08:01.632Z,32.95
2022-07-27T10:09:03.535Z,33.39
2022-07-27T10:10:05.848Z,33.78
2022-07-27T10:11:07.757Z,34.19
2022-07-27T10:12:09.721Z,33.65
2022-07-27T10:13:11.436Z,33.82
2022-07-27T10:14:13.526Z,34.13
2022-07-27T10:15:15.512Z,34.29
2022-07-27T10:16:24.164Z,35.03
2022-07-27T10:17:26.926Z,35.36
2022-07-27T10:18:50.745Z,35.65
2022-07-27T10:19:58.175Z,35.49
2022-07-27T10:21:07.640Z,35.70
2022-07-27T10:22:09.267Z,35.91
2022-07-27T10:23:28.443Z,35.90
2022-07-27T10:24:36.206Z,35.79
2022-07-27T10:25:43.772Z,35.65
2022-07-27T10:26:45.419Z,35.22
2022-07-27T10:28:17.524Z,33.82
2022-07-27T10:29:21.354Z,32.90
2022-07-27T10:30:27.996Z,31.78
2022-07-27T10:31:35.444Z,30.93
2022-07-27T10:32:37.764Z,30.33
2022-07-27T10:33:44.215Z,29.87
2022-07-27T10:34:45.816Z,29.52
2022-07-27T10:35:47.553Z,29.43
2022-07-27T10:36:53.611Z,29.24
2022-07-27T10:38:18.095Z,28.96
2022-07-27T10:39:30.150Z,28.77
2022-07-27T10:40:34.468Z,28.55
2022-07-27T10:41:43.807Z,28.38
2022-07-27T10:42:51.877Z,28.37
2022-07-27T10:44:29.171Z,28.30
2022-07-27T10:46:00.034Z,28.68
2022-07-27T10:47:04.565Z,29.21
2022-07-27T10:48:06.310Z,29.21
2022-07-27T10:49:19.161Z,29.37
2022-07-27T10:50:27.088Z,29.58
2022-07-27T10:51:35.218Z,29.68
2022-07-27T10:52:50.704Z,29.77
2022-07-27T10:55:32.216Z,30.32
2022-07-27T10:56:48.299Z,30.86
2022-07-27T10:57:49.865Z,31.82
2022-07-27T10:58:51.880Z,32.05
2022-07-27T11:00:13.357Z,31.96
2022-07-27T11:01:16.074Z,31.98
2022-07-27T11:02:18.741Z,31.48
2022-07-27T11:03:33.054Z,30.75
2022-07-27T11:04:43.134Z,30.21
2022-07-27T11:06:30.791Z,29.88
2022-07-27T11:07:38.299Z,29.47
2022-07-27T11:08:52.255Z,29.36
2022-07-27T11:10:05.148Z,29.86
2022-07-27T11:11:09.644Z,30.21
2022-07-27T11:12:13.926Z,30.12
2022-07-27T11:18:15.136Z,29.38
2022-07-27T11:19:17.960Z,29.20
2022-07-27T11:20:23.966Z,29.36
2022-07-27T11:21:27.299Z,29.32
2022-07-27T11:22:53.676Z,29.26
2022-07-27T11:23:55.420Z,29.54
2022-07-27T11:24:57.003Z,29.76
2022-07-27T11:26:00.240Z,30.11
2022-07-27T11:27:17.678Z,30.35
2022-07-27T11:28:28.361Z,30.22
2022-07-27T11:29:40.152Z,30.59
2022-07-27T11:30:45.701Z,30.69
2022-07-27T11:31:56.509Z,30.86
2022-07-27T11:33:04.925Z,31.04
2022-07-27T11:34:07.647Z,31.09
2022-07-27T11:35:19.543Z,30.73
2022-07-27T11:36:22.609Z,30.62
2022-07-27T11:37:24.536Z,30.75
2022-07-27T11:38:27.047Z,30.84
2022-07-27T11:40:56.827Z,32.07
2022-07-27T11:42:11.792Z,32.27
2022-07-27T11:43:33.952Z,31.81
2022-07-27T11:44:38.576Z,31.10
2022-07-27T11:45:43.026Z,30.86
2022-07-27T11:46:47.127Z,30.90
2022-07-27T11:47:56.983Z,31.34
2022-07-27T11:49:10.043Z,31.53
2022-07-27T11:50:13.751Z,31.21
2022-07-27T11:51:17.189Z,31.09
2022-07-27T11:52:18.934Z,31.28
2022-07-27T11:53:20.852Z,31.77
2022-07-27T11:54:26.786Z,31.80
2022-07-27T11:55:28.518Z,31.60
2022-07-27T11:56:33.511Z,31.53
2022-07-27T11:57:36.091Z,31.30
2022-07-27T11:59:27.738Z,30.87
2022-07-27T12:00:42.572Z,30.27
2022-07-27T12:01:55.445Z,29.98
2022-07-27T12:02:57.226Z,29.95
2022-07-27T12:04:10.299Z,30.05
2022-07-27T12:05:12.010Z,29.73
2022-07-27T12:06:13.747Z,29.55
2022-07-27T12:07:22.021Z,29.31
2022-07-27T12:08:24.343Z,28.99
2022-07-27T12:09:27.074Z,28.91
2022-07-27T12:10:34.486Z,28.94
2022-07-27T12:12:02.162Z,28.79
2022-07-27T12:13:03.803Z,28.58
2022-07-27T12:14:12.415Z,28.41
2022-07-27T12:16:40.525Z,28.37
2022-07-27T12:17:47.266Z,28.40
2022-07-27T12:18:48.967Z,28.35
2022-07-27T12:19:52.021Z,28.15
2022-07-27T12:20:53.684Z,28.01
2022-07-27T12:21:55.379Z,27.86
2022-07-27T12:23:05.106Z,27.71
2022-07-27T12:24:07.192Z,27.74
2022-07-27T12:25:17.799Z,27.63
2022-07-27T12:26:21.311Z,27.62
2022-07-27T12:27:23.852Z,27.68
2022-07-27T12:28:25.625Z,27.83
2022-07-27T12:29:27.438Z,28.04
2022-07-27T12:30:38.041Z,28.26
2022-07-27T12:31:48.672Z,28.69
2022-07-27T12:32:54.064Z,29.35
2022-07-27T12:34:05.650Z,30.25
2022-07-27T12:35:47.342Z,31.60
2022-07-27T12:36:48.983Z,32.38
2022-07-27T12:38:08.257Z,33.04
2022-07-27T12:39:26.679Z,33.48
2022-07-27T12:40:30.028Z,33.75
2022-07-27T12:41:36.602Z,33.83
2022-07-27T12:42:38.173Z,33.79
2022-07-27T12:43:40.020Z,33.78
2022-07-27T12:44:44.935Z,32.89
2022-07-27T12:45:48.678Z,32.38
2022-07-27T12:47:27.798Z,32.20
2022-07-27T12:48:38.769Z,32.90
2022-07-27T12:49:46.126Z,33.30
2022-07-27T12:50:58.461Z,33.66
2022-07-27T12:52:10.445Z,34.12
2022-07-27T12:53:14.404Z,34.46
2022-07-27T12:54:16.125Z,34.70
2022-07-27T12:55:20.009Z,34.74
2022-07-27T12:56:27.005Z,34.83
2022-07-27T12:57:54.193Z,34.46
2022-07-27T12:59:04.515Z,34.55
2022-07-27T13:00:10.461Z,34.50
2022-07-27T13:01:12.287Z,34.78
2022-07-27T13:02:17.556Z,34.93
2022-07-27T13:03:19.316Z,34.44
2022-07-27T13:04:20.983Z,33.91
2022-07-27T13:05:22.656Z,33.06
2022-07-27T13:06:24.286Z,32.82
2022-07-27T13:07:26.079Z,32.36
2022-07-27T13:08:27.792Z,31.78
2022-07-27T13:10:02.876Z,31.37
2022-07-27T13:10:54.030Z,30.69
2022-07-27T13:12:00.016Z,30.33
2022-07-27T13:13:03.205Z,30.01
2022-07-27T13:14:04.896Z,29.71
2022-07-27T13:15:08.482Z,29.65
2022-07-27T13:16:10.122Z,29.44
2022-07-27T13:17:11.854Z,29.45
2022-07-27T13:18:13.571Z,29.71
2022-07-27T13:19:15.926Z,29.95
2022-07-27T13:20:18.305Z,30.57
2022-07-27T13:21:19.913Z,31.34
2022-07-27T13:22:21.549Z,32.03
2022-07-27T13:23:23.174Z,31.91
2022-07-27T13:24:24.906Z,31.89
2022-07-27T13:25:26.571Z,32.16
2022-07-27T13:26:28.271Z,32.55
2022-07-27T13:27:30.157Z,32.58
2022-07-27T13:28:31.763Z,32.22
2022-07-27T13:29:33.646Z,31.86
2022-07-27T13:30:35.608Z,31.63
2022-07-27T13:31:37.279Z,31.41
2022-07-27T13:32:39.989Z,31.76
2022-07-27T13:33:41.626Z,32.01
2022-07-27T13:34:43.287Z,32.22
2022-07-27T13:35:45.792Z,31.85
2022-07-27T13:36:48.659Z,31.66
2022-07-27T13:37:50.208Z,31.81
2022-07-27T13:38:51.839Z,32.29
2022-07-27T13:39:54.182Z,32.65
2022-07-27T13:40:56.131Z,33.03
2022-07-27T13:41:57.716Z,33.04
2022-07-27T13:42:59.408Z,33.24
2022-07-27T13:44:01.234Z,33.68
2022-07-27T13:45:09.218Z,33.87
2022-07-27T13:46:11.417Z,33.68
2022-07-27T13:47:13.343Z,33.95
2022-07-27T13:48:16.140Z,33.86
2022-07-27T13:49:18.473Z,34.11
2022-07-27T13:50:20.399Z,33.81
2022-07-27T13:51:21.956Z,33.47
2022-07-27T13:52:24.189Z,33.34
2022-07-27T13:53:26.305Z,33.11
2022-07-27T13:54:27.988Z,33.02
2022-07-27T13:55:29.630Z,32.23
2022-07-27T13:56:32.541Z,31.94
2022-07-27T13:57:34.147Z,31.89
2022-07-27T13:58:35.752Z,32.10
2022-07-27T13:59:37.727Z,32.63
2022-07-27T14:00:39.868Z,32.83